Angler Guide Weather for Koosharem -
Koosharem, Utah Current Weather Conditions
Enter your "Place, State", US Zip Code or ICAO:  
NowCast ZoneCast Warnings/Advisories Hourly Track Special Radar
Koosharem, Utah (84744)  Lat: 38.51N, Lon: 111.88W
Wx Zone: UTZ017 ICAO Used: KBCE
Current Conditions at nearby:
Bryce Canyon, Bryce Canyon Airport, UT
Updated: UNKNOWN
Sun & Moon Information:
Light Rain
Light Rain
Temp: 65°F
Humidity: 68%
Wind Speed: W 13.8 MPH (12 KT)
Barometer: 30.24 in.
Dewpoint: 54°F
Heat Index: 65°F
Wind Chill: 65°F
Civil Twilight: 5:36 AM MDT
Moonrise: 10:52 PM MDT Moon Phase:
Waning Gibbous Moon
Waning Gibbous Moon
Moonset: 9:06 AM MDT
Sunrise: 6:08 AM MDT
Sunset: 8:54 PM MDT
Civil Twilight: 9:26 PM MDT
Forecast for Koosharem, UT:
(Forecast based on TAF for )
0600 PM MDT SAT NOV 29 2014
  
EVENINGOVERNIGHTMORNINGAFTERNOON
TAF based forecast:
Dated: 0600 PM MDT SAT NOV 29 2014
Evening....
Overnight....
Morning....
Afternoon....
Original Encoded TAF:
Dated: 0600 PM MDT SAT NOV 29 2014
2015/07/04 22:59
TAF 
      AMD KBCE 042159Z 0422/0518 29010KT P6SM VCSH SCT070 BKN150 
     FM050200 26006KT P6SM FEW090 BKN180



Powered by Angler Guide.com
Copyright 2007, all rights reserved.